Wadena, Iowa
Current Conditions -  °F | °C
As of 7:35 AM on Sunday 23 Nov 2014 (Local Time) from KOLZ Reporting Station
Haze Haze  
Wind Chill: 50°   Ceiling: 300
Heat Index: 50°   Visibility: 4mi
Dew Point: 50°   Wind: 16mph
Humidity: 100%   Direction: 180°S
Pressure: 29.56"   Gusts: 23mph
Location:  42.84°N, 91.66°W
Report Text: KOLZ 231335Z AUTO 18014G20KT 4SM BR OVC003 10/10 A2956 RMK AO2
Loading
Personal Weather Stations






























Interactive Weather Map New forecast layout! Learn more

10-Day Weather Forecast

Advertisements
Track Severe Weather on mobile